sensor_id;sensor_type;location;lat;lon;timestamp;P1;durP1;ratioP1;P2;durP2;ratioP2
72621;SDS011;60665;53.506;9.582;2022-09-09T00:01:47;36.42;;;13.93;;
72621;SDS011;60665;53.506;9.582;2022-09-09T00:04:32;21.65;;;13.27;;
72621;SDS011;60665;53.506;9.582;2022-09-09T00:07:04;23.30;;;13.68;;
72621;SDS011;60665;53.506;9.582;2022-09-09T00:09:39;24.27;;;13.80;;
72621;SDS011;60665;53.506;9.582;2022-09-09T00:12:15;22.45;;;13.65;;
72621;SDS011;60665;53.506;9.582;2022-09-09T00:15:00;21.50;;;13.63;;
72621;SDS011;60665;53.506;9.582;2022-09-09T00:17:36;26.92;;;14.45;;
72621;SDS011;60665;53.506;9.582;2022-09-09T00:20:44;17.73;;;11.18;;
72621;SDS011;60665;53.506;9.582;2022-09-09T00:23:33;23.27;;;13.70;;
72621;SDS011;60665;53.506;9.582;2022-09-09T00:28:30;26.20;;;13.82;;
72621;SDS011;60665;53.506;9.582;2022-09-09T00:31:07;21.85;;;13.52;;
72621;SDS011;60665;53.506;9.582;2022-09-09T00:33:37;20.52;;;12.90;;
72621;SDS011;60665;53.506;9.582;2022-09-09T00:36:04;17.90;;;11.07;;
72621;SDS011;60665;53.506;9.582;2022-09-09T00:38:48;21.52;;;13.30;;
72621;SDS011;60665;53.506;9.582;2022-09-09T00:41:24;24.38;;;12.82;;
72621;SDS011;60665;53.506;9.582;2022-09-09T00:49:31;17.63;;;11.82;;
72621;SDS011;60665;53.506;9.582;2022-09-09T00:57:38;17.48;;;10.45;;
72621;SDS011;60665;53.506;9.582;2022-09-09T01:05:47;16.50;;;10.15;;
72621;SDS011;60665;53.506;9.582;2022-09-09T01:11:00;19.38;;;11.27;;
72621;SDS011;60665;53.506;9.582;2022-09-09T01:13:28;14.27;;;9.32;;
72621;SDS011;60665;53.506;9.582;2022-09-09T01:18:22;18.35;;;10.20;;
72621;SDS011;60665;53.506;9.582;2022-09-09T01:21:01;17.92;;;11.18;;
72621;SDS011;60665;53.506;9.582;2022-09-09T01:23:34;16.15;;;9.85;;
72621;SDS011;60665;53.506;9.582;2022-09-09T01:26:15;16.70;;;9.15;;
72621;SDS011;60665;53.506;9.582;2022-09-09T01:28:44;11.80;;;7.80;;
72621;SDS011;60665;53.506;9.582;2022-09-09T01:33:38;13.25;;;7.35;;
72621;SDS011;60665;53.506;9.582;2022-09-09T01:36:08;15.25;;;8.77;;
72621;SDS011;60665;53.506;9.582;2022-09-09T01:38:35;16.70;;;10.32;;
72621;SDS011;60665;53.506;9.582;2022-09-09T01:41:01;13.63;;;8.45;;
72621;SDS011;60665;53.506;9.582;2022-09-09T01:43:27;14.63;;;8.80;;
72621;SDS011;60665;53.506;9.582;2022-09-09T01:45:54;12.90;;;7.50;;
72621;SDS011;60665;53.506;9.582;2022-09-09T01:48:21;15.60;;;10.07;;
72621;SDS011;60665;53.506;9.582;2022-09-09T01:50:47;16.50;;;8.43;;
72621;SDS011;60665;53.506;9.582;2022-09-09T01:53:17;13.65;;;7.55;;
72621;SDS011;60665;53.506;9.582;2022-09-09T01:56:34;12.77;;;8.20;;
72621;SDS011;60665;53.506;9.582;2022-09-09T02:02:23;13.82;;;7.72;;
72621;SDS011;60665;53.506;9.582;2022-09-09T02:04:50;14.07;;;7.00;;
72621;SDS011;60665;53.506;9.582;2022-09-09T02:07:35;13.63;;;7.75;;
72621;SDS011;60665;53.506;9.582;2022-09-09T02:10:11;16.85;;;9.45;;
72621;SDS011;60665;53.506;9.582;2022-09-09T02:12:43;13.52;;;8.43;;
72621;SDS011;60665;53.506;9.582;2022-09-09T02:18:34;13.00;;;7.53;;
72621;SDS011;60665;53.506;9.582;2022-09-09T02:21:27;11.00;;;6.93;;
72621;SDS011;60665;53.506;9.582;2022-09-09T02:23:54;12.98;;;7.03;;
72621;SDS011;60665;53.506;9.582;2022-09-09T02:26:22;15.80;;;8.70;;
72621;SDS011;60665;53.506;9.582;2022-09-09T02:28:49;15.98;;;9.52;;
72621;SDS011;60665;53.506;9.582;2022-09-09T02:31:18;14.02;;;8.18;;
72621;SDS011;60665;53.506;9.582;2022-09-09T02:33:47;11.82;;;6.50;;
72621;SDS011;60665;53.506;9.582;2022-09-09T02:36:17;14.27;;;8.52;;
72621;SDS011;60665;53.506;9.582;2022-09-09T02:38:45;19.85;;;8.75;;
72621;SDS011;60665;53.506;9.582;2022-09-09T02:41:21;16.40;;;8.85;;
72621;SDS011;60665;53.506;9.582;2022-09-09T02:43:49;14.73;;;7.63;;
72621;SDS011;60665;53.506;9.582;2022-09-09T02:46:27;14.98;;;8.88;;
72621;SDS011;60665;53.506;9.582;2022-09-09T02:49:35;16.02;;;9.43;;
72621;SDS011;60665;53.506;9.582;2022-09-09T02:55:35;12.77;;;6.97;;
72621;SDS011;60665;53.506;9.582;2022-09-09T02:58:03;10.73;;;6.78;;
72621;SDS011;60665;53.506;9.582;2022-09-09T03:00:31;15.10;;;7.70;;
72621;SDS011;60665;53.506;9.582;2022-09-09T03:02:57;13.15;;;6.57;;
72621;SDS011;60665;53.506;9.582;2022-09-09T03:05:22;11.57;;;7.45;;
72621;SDS011;60665;53.506;9.582;2022-09-09T03:07:48;14.43;;;7.32;;
72621;SDS011;60665;53.506;9.582;2022-09-09T03:10:15;11.05;;;6.38;;
72621;SDS011;60665;53.506;9.582;2022-09-09T03:12:41;11.07;;;6.38;;
72621;SDS011;60665;53.506;9.582;2022-09-09T03:15:06;10.30;;;6.35;;
72621;SDS011;60665;53.506;9.582;2022-09-09T03:17:32;11.10;;;7.03;;
72621;SDS011;60665;53.506;9.582;2022-09-09T03:19:58;12.65;;;6.78;;
72621;SDS011;60665;53.506;9.582;2022-09-09T03:22:24;9.98;;;6.10;;
72621;SDS011;60665;53.506;9.582;2022-09-09T03:24:50;10.20;;;6.53;;
72621;SDS011;60665;53.506;9.582;2022-09-09T03:27:16;11.80;;;5.93;;
72621;SDS011;60665;53.506;9.582;2022-09-09T03:29:41;9.70;;;5.53;;
72621;SDS011;60665;53.506;9.582;2022-09-09T03:32:06;9.90;;;5.78;;
72621;SDS011;60665;53.506;9.582;2022-09-09T03:34:35;10.57;;;5.82;;
72621;SDS011;60665;53.506;9.582;2022-09-09T03:37:02;10.40;;;5.82;;
72621;SDS011;60665;53.506;9.582;2022-09-09T03:39:27;10.60;;;5.93;;
72621;SDS011;60665;53.506;9.582;2022-09-09T03:41:52;13.30;;;6.03;;
72621;SDS011;60665;53.506;9.582;2022-09-09T03:44:18;9.43;;;5.68;;
72621;SDS011;60665;53.506;9.582;2022-09-09T03:46:43;10.93;;;6.38;;
72621;SDS011;60665;53.506;9.582;2022-09-09T03:49:08;10.20;;;6.20;;
72621;SDS011;60665;53.506;9.582;2022-09-09T03:51:35;11.93;;;6.75;;
72621;SDS011;60665;53.506;9.582;2022-09-09T03:54:03;12.38;;;6.35;;
72621;SDS011;60665;53.506;9.582;2022-09-09T03:56:33;10.32;;;6.68;;
72621;SDS011;60665;53.506;9.582;2022-09-09T03:58:59;11.45;;;7.30;;
72621;SDS011;60665;53.506;9.582;2022-09-09T04:01:24;11.38;;;6.50;;
72621;SDS011;60665;53.506;9.582;2022-09-09T04:03:49;8.63;;;5.47;;
72621;SDS011;60665;53.506;9.582;2022-09-09T04:06:15;16.00;;;6.95;;
72621;SDS011;60665;53.506;9.582;2022-09-09T04:08:46;11.10;;;6.70;;
72621;SDS011;60665;53.506;9.582;2022-09-09T04:11:13;12.43;;;6.28;;
72621;SDS011;60665;53.506;9.582;2022-09-09T04:13:40;10.63;;;5.40;;
72621;SDS011;60665;53.506;9.582;2022-09-09T04:16:06;11.32;;;6.13;;
72621;SDS011;60665;53.506;9.582;2022-09-09T04:18:33;15.20;;;7.38;;
72621;SDS011;60665;53.506;9.582;2022-09-09T04:20:59;14.93;;;7.97;;
72621;SDS011;60665;53.506;9.582;2022-09-09T04:23:25;12.30;;;7.88;;
72621;SDS011;60665;53.506;9.582;2022-09-09T04:25:54;14.70;;;6.55;;
72621;SDS011;60665;53.506;9.582;2022-09-09T04:28:22;11.38;;;5.82;;
72621;SDS011;60665;53.506;9.582;2022-09-09T04:30:49;13.88;;;7.22;;
72621;SDS011;60665;53.506;9.582;2022-09-09T04:33:15;9.15;;;5.68;;
72621;SDS011;60665;53.506;9.582;2022-09-09T04:35:43;9.82;;;5.93;;
72621;SDS011;60665;53.506;9.582;2022-09-09T04:38:10;12.27;;;6.68;;
72621;SDS011;60665;53.506;9.582;2022-09-09T04:40:35;13.52;;;7.35;;
72621;SDS011;60665;53.506;9.582;2022-09-09T04:43:02;11.32;;;6.88;;
72621;SDS011;60665;53.506;9.582;2022-09-09T04:45:30;16.40;;;7.18;;
72621;SDS011;60665;53.506;9.582;2022-09-09T04:47:56;12.93;;;6.72;;
72621;SDS011;60665;53.506;9.582;2022-09-09T04:50:21;15.73;;;7.93;;
72621;SDS011;60665;53.506;9.582;2022-09-09T04:52:48;12.23;;;8.15;;
72621;SDS011;60665;53.506;9.582;2022-09-09T04:55:13;13.70;;;7.50;;
72621;SDS011;60665;53.506;9.582;2022-09-09T04:57:39;13.38;;;7.72;;
72621;SDS011;60665;53.506;9.582;2022-09-09T05:00:07;11.60;;;5.82;;
72621;SDS011;60665;53.506;9.582;2022-09-09T05:02:39;11.77;;;6.72;;
72621;SDS011;60665;53.506;9.582;2022-09-09T05:05:05;19.88;;;6.45;;
72621;SDS011;60665;53.506;9.582;2022-09-09T05:07:31;12.85;;;7.50;;
72621;SDS011;60665;53.506;9.582;2022-09-09T05:09:56;13.73;;;6.93;;
72621;SDS011;60665;53.506;9.582;2022-09-09T05:12:22;14.40;;;6.63;;
72621;SDS011;60665;53.506;9.582;2022-09-09T05:17:21;14.00;;;6.97;;
72621;SDS011;60665;53.506;9.582;2022-09-09T05:19:46;12.73;;;6.82;;
72621;SDS011;60665;53.506;9.582;2022-09-09T05:22:17;14.25;;;8.05;;
72621;SDS011;60665;53.506;9.582;2022-09-09T05:24:43;13.05;;;7.80;;
72621;SDS011;60665;53.506;9.582;2022-09-09T05:27:09;13.13;;;7.40;;
72621;SDS011;60665;53.506;9.582;2022-09-09T05:29:37;11.50;;;6.93;;
72621;SDS011;60665;53.506;9.582;2022-09-09T05:32:03;11.48;;;6.45;;
72621;SDS011;60665;53.506;9.582;2022-09-09T05:34:29;11.52;;;6.93;;
72621;SDS011;60665;53.506;9.582;2022-09-09T05:36:54;13.32;;;6.68;;
72621;SDS011;60665;53.506;9.582;2022-09-09T05:39:20;11.02;;;6.45;;
72621;SDS011;60665;53.506;9.582;2022-09-09T05:41:45;16.13;;;6.47;;
72621;SDS011;60665;53.506;9.582;2022-09-09T05:44:10;12.50;;;6.30;;
72621;SDS011;60665;53.506;9.582;2022-09-09T05:46:36;9.63;;;5.50;;
72621;SDS011;60665;53.506;9.582;2022-09-09T05:49:01;13.23;;;6.55;;
72621;SDS011;60665;53.506;9.582;2022-09-09T05:51:27;10.60;;;5.95;;
72621;SDS011;60665;53.506;9.582;2022-09-09T05:53:55;8.88;;;5.70;;
72621;SDS011;60665;53.506;9.582;2022-09-09T05:56:24;12.38;;;5.80;;
72621;SDS011;60665;53.506;9.582;2022-09-09T05:58:52;11.82;;;5.72;;
72621;SDS011;60665;53.506;9.582;2022-09-09T06:03:46;11.85;;;6.05;;
72621;SDS011;60665;53.506;9.582;2022-09-09T06:06:14;12.77;;;5.30;;
72621;SDS011;60665;53.506;9.582;2022-09-09T06:08:45;12.00;;;6.43;;
72621;SDS011;60665;53.506;9.582;2022-09-09T06:11:15;13.18;;;6.13;;
72621;SDS011;60665;53.506;9.582;2022-09-09T06:13:42;12.43;;;6.10;;
72621;SDS011;60665;53.506;9.582;2022-09-09T06:16:11;10.20;;;5.13;;
72621;SDS011;60665;53.506;9.582;2022-09-09T06:18:39;9.38;;;5.35;;
72621;SDS011;60665;53.506;9.582;2022-09-09T06:21:06;10.65;;;5.85;;
72621;SDS011;60665;53.506;9.582;2022-09-09T06:23:34;10.38;;;6.25;;
72621;SDS011;60665;53.506;9.582;2022-09-09T06:26:03;13.68;;;5.88;;
72621;SDS011;60665;53.506;9.582;2022-09-09T06:28:34;12.70;;;5.63;;
72621;SDS011;60665;53.506;9.582;2022-09-09T06:31:00;10.35;;;5.30;;
72621;SDS011;60665;53.506;9.582;2022-09-09T06:33:26;12.40;;;5.72;;
72621;SDS011;60665;53.506;9.582;2022-09-09T06:35:56;11.18;;;5.30;;
72621;SDS011;60665;53.506;9.582;2022-09-09T06:38:25;9.45;;;5.10;;
72621;SDS011;60665;53.506;9.582;2022-09-09T06:40:53;10.95;;;5.38;;
72621;SDS011;60665;53.506;9.582;2022-09-09T06:43:20;10.20;;;5.55;;
72621;SDS011;60665;53.506;9.582;2022-09-09T06:48:19;13.57;;;5.57;;
72621;SDS011;60665;53.506;9.582;2022-09-09T06:50:45;9.43;;;5.30;;
72621;SDS011;60665;53.506;9.582;2022-09-09T06:53:10;8.95;;;5.10;;
72621;SDS011;60665;53.506;9.582;2022-09-09T06:55:35;9.70;;;4.93;;
72621;SDS011;60665;53.506;9.582;2022-09-09T06:58:01;11.05;;;4.97;;
72621;SDS011;60665;53.506;9.582;2022-09-09T07:00:26;11.75;;;4.80;;
72621;SDS011;60665;53.506;9.582;2022-09-09T07:02:52;11.40;;;5.18;;
72621;SDS011;60665;53.506;9.582;2022-09-09T07:05:17;9.10;;;4.53;;
72621;SDS011;60665;53.506;9.582;2022-09-09T07:07:46;8.93;;;4.60;;
72621;SDS011;60665;53.506;9.582;2022-09-09T07:10:11;11.38;;;4.60;;
72621;SDS011;60665;53.506;9.582;2022-09-09T07:12:36;9.90;;;4.88;;
72621;SDS011;60665;53.506;9.582;2022-09-09T07:15:04;8.80;;;4.50;;
72621;SDS011;60665;53.506;9.582;2022-09-09T07:17:31;8.18;;;4.20;;
72621;SDS011;60665;53.506;9.582;2022-09-09T07:19:56;9.55;;;4.28;;
72621;SDS011;60665;53.506;9.582;2022-09-09T07:22:22;7.82;;;4.03;;
72621;SDS011;60665;53.506;9.582;2022-09-09T07:24:51;11.45;;;4.50;;
72621;SDS011;60665;53.506;9.582;2022-09-09T07:27:16;7.00;;;3.92;;
72621;SDS011;60665;53.506;9.582;2022-09-09T07:29:41;8.05;;;4.22;;
72621;SDS011;60665;53.506;9.582;2022-09-09T07:32:07;8.25;;;4.18;;
72621;SDS011;60665;53.506;9.582;2022-09-09T07:34:33;7.75;;;3.72;;
72621;SDS011;60665;53.506;9.582;2022-09-09T07:36:58;8.75;;;4.05;;
72621;SDS011;60665;53.506;9.582;2022-09-09T07:39:25;9.13;;;4.10;;
72621;SDS011;60665;53.506;9.582;2022-09-09T07:41:51;9.23;;;3.88;;
72621;SDS011;60665;53.506;9.582;2022-09-09T07:44:19;7.80;;;3.50;;
72621;SDS011;60665;53.506;9.582;2022-09-09T07:46:50;7.60;;;3.42;;
72621;SDS011;60665;53.506;9.582;2022-09-09T07:49:15;8.05;;;4.07;;
72621;SDS011;60665;53.506;9.582;2022-09-09T07:51:42;8.55;;;3.35;;
72621;SDS011;60665;53.506;9.582;2022-09-09T07:54:10;8.70;;;3.10;;
72621;SDS011;60665;53.506;9.582;2022-09-09T07:56:37;9.07;;;3.70;;
72621;SDS011;60665;53.506;9.582;2022-09-09T07:59:03;6.03;;;3.00;;
72621;SDS011;60665;53.506;9.582;2022-09-09T08:01:32;5.35;;;3.10;;
72621;SDS011;60665;53.506;9.582;2022-09-09T08:04:10;7.25;;;3.30;;
72621;SDS011;60665;53.506;9.582;2022-09-09T08:06:42;6.68;;;3.75;;
72621;SDS011;60665;53.506;9.582;2022-09-09T08:09:09;5.63;;;3.03;;
72621;SDS011;60665;53.506;9.582;2022-09-09T08:11:38;6.65;;;3.05;;
72621;SDS011;60665;53.506;9.582;2022-09-09T08:14:04;7.60;;;3.40;;
72621;SDS011;60665;53.506;9.582;2022-09-09T08:16:33;5.22;;;2.80;;
72621;SDS011;60665;53.506;9.582;2022-09-09T08:19:01;6.03;;;2.80;;
72621;SDS011;60665;53.506;9.582;2022-09-09T08:21:28;7.38;;;2.83;;
72621;SDS011;60665;53.506;9.582;2022-09-09T08:23:55;6.38;;;2.80;;
72621;SDS011;60665;53.506;9.582;2022-09-09T08:26:23;8.32;;;3.50;;
72621;SDS011;60665;53.506;9.582;2022-09-09T08:28:53;6.00;;;2.80;;
72621;SDS011;60665;53.506;9.582;2022-09-09T08:31:24;7.40;;;3.40;;
72621;SDS011;60665;53.506;9.582;2022-09-09T08:33:52;8.23;;;3.13;;
72621;SDS011;60665;53.506;9.582;2022-09-09T08:36:21;7.22;;;3.70;;
72621;SDS011;60665;53.506;9.582;2022-09-09T08:38:51;6.55;;;2.90;;
72621;SDS011;60665;53.506;9.582;2022-09-09T08:47:16;6.60;;;2.92;;
72621;SDS011;60665;53.506;9.582;2022-09-09T08:52:38;7.57;;;2.97;;
72621;SDS011;60665;53.506;9.582;2022-09-09T08:57:39;6.53;;;2.58;;
72621;SDS011;60665;53.506;9.582;2022-09-09T09:00:07;6.20;;;2.60;;
72621;SDS011;60665;53.506;9.582;2022-09-09T09:02:44;5.65;;;2.90;;
72621;SDS011;60665;53.506;9.582;2022-09-09T09:08:30;6.90;;;2.30;;
72621;SDS011;60665;53.506;9.582;2022-09-09T09:11:09;7.47;;;2.30;;
72621;SDS011;60665;53.506;9.582;2022-09-09T09:13:48;5.93;;;2.00;;
72621;SDS011;60665;53.506;9.582;2022-09-09T09:19:07;7.57;;;2.17;;
72621;SDS011;60665;53.506;9.582;2022-09-09T09:21:41;3.95;;;1.77;;
72621;SDS011;60665;53.506;9.582;2022-09-09T09:24:20;4.97;;;2.00;;
72621;SDS011;60665;53.506;9.582;2022-09-09T09:26:51;5.35;;;2.00;;
72621;SDS011;60665;53.506;9.582;2022-09-09T09:29:18;4.00;;;1.65;;
72621;SDS011;60665;53.506;9.582;2022-09-09T09:31:52;5.10;;;1.55;;
72621;SDS011;60665;53.506;9.582;2022-09-09T09:34:19;4.53;;;1.75;;
72621;SDS011;60665;53.506;9.582;2022-09-09T09:36:46;4.57;;;1.50;;
72621;SDS011;60665;53.506;9.582;2022-09-09T09:39:25;4.30;;;1.98;;
72621;SDS011;60665;53.506;9.582;2022-09-09T09:41:52;5.40;;;1.55;;
72621;SDS011;60665;53.506;9.582;2022-09-09T09:47:04;4.10;;;1.42;;
72621;SDS011;60665;53.506;9.582;2022-09-09T09:49:30;4.30;;;1.55;;
72621;SDS011;60665;53.506;9.582;2022-09-09T09:52:01;5.07;;;1.50;;
72621;SDS011;60665;53.506;9.582;2022-09-09T09:54:29;3.67;;;1.10;;
72621;SDS011;60665;53.506;9.582;2022-09-09T09:56:56;4.78;;;1.30;;
72621;SDS011;60665;53.506;9.582;2022-09-09T09:59:40;3.03;;;0.93;;
72621;SDS011;60665;53.506;9.582;2022-09-09T10:04:46;4.72;;;1.10;;
72621;SDS011;60665;53.506;9.582;2022-09-09T10:07:20;3.47;;;1.38;;
72621;SDS011;60665;53.506;9.582;2022-09-09T10:09:54;4.43;;;0.98;;
72621;SDS011;60665;53.506;9.582;2022-09-09T10:12:24;3.75;;;1.15;;
72621;SDS011;60665;53.506;9.582;2022-09-09T10:15:01;3.70;;;1.30;;
72621;SDS011;60665;53.506;9.582;2022-09-09T10:17:38;3.55;;;1.10;;
72621;SDS011;60665;53.506;9.582;2022-09-09T10:23:34;3.33;;;1.13;;
72621;SDS011;60665;53.506;9.582;2022-09-09T10:37:06;4.93;;;1.50;;
72621;SDS011;60665;53.506;9.582;2022-09-09T10:39:42;4.72;;;1.35;;
72621;SDS011;60665;53.506;9.582;2022-09-09T10:42:14;2.95;;;1.38;;
72621;SDS011;60665;53.506;9.582;2022-09-09T10:53:16;5.03;;;1.20;;
72621;SDS011;60665;53.506;9.582;2022-09-09T10:56:08;5.30;;;1.30;;
72621;SDS011;60665;53.506;9.582;2022-09-09T10:58:38;3.83;;;1.30;;
72621;SDS011;60665;53.506;9.582;2022-09-09T11:01:09;4.60;;;1.38;;
72621;SDS011;60665;53.506;9.582;2022-09-09T11:03:41;5.03;;;1.48;;
72621;SDS011;60665;53.506;9.582;2022-09-09T11:06:11;6.13;;;1.83;;
72621;SDS011;60665;53.506;9.582;2022-09-09T11:08:40;4.03;;;1.27;;
72621;SDS011;60665;53.506;9.582;2022-09-09T11:16:45;6.30;;;1.67;;
72621;SDS011;60665;53.506;9.582;2022-09-09T11:21:45;5.22;;;2.08;;
72621;SDS011;60665;53.506;9.582;2022-09-09T11:24:14;6.57;;;1.50;;
72621;SDS011;60665;53.506;9.582;2022-09-09T11:26:51;4.53;;;1.17;;
72621;SDS011;60665;53.506;9.582;2022-09-09T11:38:15;6.82;;;1.52;;
72621;SDS011;60665;53.506;9.582;2022-09-09T11:40:44;4.50;;;2.05;;
72621;SDS011;60665;53.506;9.582;2022-09-09T11:45:37;4.20;;;1.40;;
72621;SDS011;60665;53.506;9.582;2022-09-09T11:48:04;6.78;;;2.00;;
72621;SDS011;60665;53.506;9.582;2022-09-09T11:50:34;5.20;;;1.35;;
72621;SDS011;60665;53.506;9.582;2022-09-09T11:53:05;4.57;;;1.23;;
72621;SDS011;60665;53.506;9.582;2022-09-09T11:55:48;7.03;;;1.38;;
72621;SDS011;60665;53.506;9.582;2022-09-09T11:58:24;5.45;;;1.00;;
72621;SDS011;60665;53.506;9.582;2022-09-09T12:00:50;6.18;;;1.27;;
72621;SDS011;60665;53.506;9.582;2022-09-09T12:06:17;5.38;;;1.30;;
72621;SDS011;60665;53.506;9.582;2022-09-09T12:08:46;4.45;;;1.10;;
72621;SDS011;60665;53.506;9.582;2022-09-09T12:11:25;6.00;;;1.20;;
72621;SDS011;60665;53.506;9.582;2022-09-09T12:13:52;3.58;;;1.00;;
72621;SDS011;60665;53.506;9.582;2022-09-09T12:16:34;5.93;;;1.20;;
72621;SDS011;60665;53.506;9.582;2022-09-09T12:19:15;4.32;;;1.10;;
72621;SDS011;60665;53.506;9.582;2022-09-09T12:24:34;4.88;;;1.15;;
72621;SDS011;60665;53.506;9.582;2022-09-09T12:29:38;6.07;;;1.13;;
72621;SDS011;60665;53.506;9.582;2022-09-09T12:32:10;7.40;;;1.13;;
72621;SDS011;60665;53.506;9.582;2022-09-09T12:37:46;3.60;;;1.23;;
72621;SDS011;60665;53.506;9.582;2022-09-09T12:40:03;5.50;;;1.02;;
72621;SDS011;60665;53.506;9.582;2022-09-09T12:42:30;4.30;;;0.93;;
72621;SDS011;60665;53.506;9.582;2022-09-09T12:45:01;3.42;;;1.00;;
72621;SDS011;60665;53.506;9.582;2022-09-09T12:50:24;4.97;;;1.10;;
72621;SDS011;60665;53.506;9.582;2022-09-09T12:52:57;5.53;;;1.10;;
72621;SDS011;60665;53.506;9.582;2022-09-09T12:55:25;3.25;;;1.00;;
72621;SDS011;60665;53.506;9.582;2022-09-09T12:57:55;5.05;;;1.50;;
72621;SDS011;60665;53.506;9.582;2022-09-09T13:00:21;4.45;;;1.33;;
72621;SDS011;60665;53.506;9.582;2022-09-09T13:07:47;4.50;;;1.60;;
72621;SDS011;60665;53.506;9.582;2022-09-09T13:10:13;7.00;;;1.63;;
72621;SDS011;60665;53.506;9.582;2022-09-09T13:12:40;4.30;;;1.50;;
72621;SDS011;60665;53.506;9.582;2022-09-09T13:15:12;4.53;;;1.35;;
72621;SDS011;60665;53.506;9.582;2022-09-09T13:17:48;5.05;;;1.60;;
72621;SDS011;60665;53.506;9.582;2022-09-09T13:20:18;6.63;;;1.40;;
72621;SDS011;60665;53.506;9.582;2022-09-09T13:22:44;4.70;;;1.20;;
72621;SDS011;60665;53.506;9.582;2022-09-09T13:27:37;4.72;;;1.27;;
72621;SDS011;60665;53.506;9.582;2022-09-09T13:30:20;4.13;;;1.33;;
72621;SDS011;60665;53.506;9.582;2022-09-09T13:32:47;4.78;;;1.15;;
72621;SDS011;60665;53.506;9.582;2022-09-09T13:35:24;3.95;;;1.30;;
72621;SDS011;60665;53.506;9.582;2022-09-09T13:37:50;4.07;;;1.48;;
72621;SDS011;60665;53.506;9.582;2022-09-09T13:40:19;3.95;;;1.35;;
72621;SDS011;60665;53.506;9.582;2022-09-09T13:42:46;4.13;;;1.10;;
72621;SDS011;60665;53.506;9.582;2022-09-09T13:45:19;3.35;;;1.00;;
72621;SDS011;60665;53.506;9.582;2022-09-09T13:47:45;3.72;;;0.98;;
72621;SDS011;60665;53.506;9.582;2022-09-09T13:50:30;6.38;;;1.17;;
72621;SDS011;60665;53.506;9.582;2022-09-09T13:52:56;4.78;;;1.20;;
72621;SDS011;60665;53.506;9.582;2022-09-09T13:55:26;3.25;;;1.00;;
72621;SDS011;60665;53.506;9.582;2022-09-09T13:58:02;2.85;;;1.33;;
72621;SDS011;60665;53.506;9.582;2022-09-09T14:00:30;3.33;;;1.10;;
72621;SDS011;60665;53.506;9.582;2022-09-09T14:02:57;4.75;;;1.13;;
72621;SDS011;60665;53.506;9.582;2022-09-09T14:05:23;5.80;;;1.20;;
72621;SDS011;60665;53.506;9.582;2022-09-09T14:07:48;3.60;;;1.20;;
72621;SDS011;60665;53.506;9.582;2022-09-09T14:10:14;5.32;;;1.70;;
72621;SDS011;60665;53.506;9.582;2022-09-09T14:12:39;5.47;;;1.13;;
72621;SDS011;60665;53.506;9.582;2022-09-09T14:15:05;3.17;;;1.10;;
72621;SDS011;60665;53.506;9.582;2022-09-09T14:17:31;3.70;;;1.20;;
72621;SDS011;60665;53.506;9.582;2022-09-09T14:19:57;5.32;;;2.00;;
72621;SDS011;60665;53.506;9.582;2022-09-09T14:22:23;5.72;;;1.80;;
72621;SDS011;60665;53.506;9.582;2022-09-09T14:24:49;6.93;;;1.77;;
72621;SDS011;60665;53.506;9.582;2022-09-09T14:27:15;4.85;;;1.95;;
72621;SDS011;60665;53.506;9.582;2022-09-09T14:29:41;7.03;;;1.70;;
72621;SDS011;60665;53.506;9.582;2022-09-09T14:32:08;5.05;;;2.05;;
72621;SDS011;60665;53.506;9.582;2022-09-09T14:34:33;5.18;;;1.85;;
72621;SDS011;60665;53.506;9.582;2022-09-09T14:36:59;5.53;;;2.17;;
72621;SDS011;60665;53.506;9.582;2022-09-09T14:39:24;8.98;;;1.52;;
72621;SDS011;60665;53.506;9.582;2022-09-09T14:41:49;5.05;;;1.48;;
72621;SDS011;60665;53.506;9.582;2022-09-09T14:44:15;7.68;;;1.63;;
72621;SDS011;60665;53.506;9.582;2022-09-09T14:46:41;6.00;;;1.50;;
72621;SDS011;60665;53.506;9.582;2022-09-09T14:49:07;4.82;;;1.30;;
72621;SDS011;60665;53.506;9.582;2022-09-09T14:51:32;3.00;;;1.20;;
72621;SDS011;60665;53.506;9.582;2022-09-09T14:53:58;4.22;;;1.48;;
72621;SDS011;60665;53.506;9.582;2022-09-09T14:56:28;6.53;;;1.30;;
72621;SDS011;60665;53.506;9.582;2022-09-09T14:58:55;5.70;;;1.15;;
72621;SDS011;60665;53.506;9.582;2022-09-09T15:01:21;4.60;;;1.10;;
72621;SDS011;60665;53.506;9.582;2022-09-09T15:03:57;3.80;;;1.10;;
72621;SDS011;60665;53.506;9.582;2022-09-09T15:06:24;3.88;;;1.20;;
72621;SDS011;60665;53.506;9.582;2022-09-09T15:08:51;3.42;;;1.00;;
72621;SDS011;60665;53.506;9.582;2022-09-09T15:11:17;5.72;;;1.00;;
72621;SDS011;60665;53.506;9.582;2022-09-09T15:13:43;3.03;;;1.20;;
72621;SDS011;60665;53.506;9.582;2022-09-09T15:18:34;4.82;;;1.10;;
72621;SDS011;60665;53.506;9.582;2022-09-09T15:21:01;5.00;;;1.02;;
72621;SDS011;60665;53.506;9.582;2022-09-09T15:23:31;4.07;;;1.10;;
72621;SDS011;60665;53.506;9.582;2022-09-09T15:25:57;3.58;;;1.00;;
72621;SDS011;60665;53.506;9.582;2022-09-09T15:28:22;3.90;;;1.17;;
72621;SDS011;60665;53.506;9.582;2022-09-09T15:30:48;4.88;;;1.38;;
72621;SDS011;60665;53.506;9.582;2022-09-09T15:33:14;6.10;;;1.13;;
72621;SDS011;60665;53.506;9.582;2022-09-09T15:35:40;2.40;;;0.88;;
72621;SDS011;60665;53.506;9.582;2022-09-09T15:38:05;4.63;;;1.10;;
72621;SDS011;60665;53.506;9.582;2022-09-09T15:40:31;5.35;;;1.00;;
72621;SDS011;60665;53.506;9.582;2022-09-09T15:42:59;3.42;;;0.85;;
72621;SDS011;60665;53.506;9.582;2022-09-09T15:45:25;3.10;;;0.95;;
72621;SDS011;60665;53.506;9.582;2022-09-09T15:47:51;3.58;;;1.10;;
72621;SDS011;60665;53.506;9.582;2022-09-09T15:50:17;3.50;;;0.98;;
72621;SDS011;60665;53.506;9.582;2022-09-09T15:52:42;5.13;;;1.05;;
72621;SDS011;60665;53.506;9.582;2022-09-09T15:55:08;4.45;;;0.90;;
72621;SDS011;60665;53.506;9.582;2022-09-09T15:57:33;3.72;;;0.80;;
72621;SDS011;60665;53.506;9.582;2022-09-09T15:59:59;4.00;;;1.10;;
72621;SDS011;60665;53.506;9.582;2022-09-09T16:02:28;3.05;;;0.73;;
72621;SDS011;60665;53.506;9.582;2022-09-09T16:04:55;4.70;;;1.17;;
72621;SDS011;60665;53.506;9.582;2022-09-09T16:07:22;5.93;;;1.00;;
72621;SDS011;60665;53.506;9.582;2022-09-09T16:09:48;3.83;;;1.00;;
72621;SDS011;60665;53.506;9.582;2022-09-09T16:12:16;4.53;;;0.90;;
72621;SDS011;60665;53.506;9.582;2022-09-09T16:14:42;2.05;;;0.73;;
72621;SDS011;60665;53.506;9.582;2022-09-09T16:17:07;3.55;;;0.80;;
72621;SDS011;60665;53.506;9.582;2022-09-09T16:19:33;4.55;;;1.00;;
72621;SDS011;60665;53.506;9.582;2022-09-09T16:21:59;3.67;;;0.93;;
72621;SDS011;60665;53.506;9.582;2022-09-09T16:24:25;2.47;;;0.88;;
72621;SDS011;60665;53.506;9.582;2022-09-09T16:26:51;4.07;;;0.77;;
72621;SDS011;60665;53.506;9.582;2022-09-09T16:29:19;2.25;;;0.77;;
72621;SDS011;60665;53.506;9.582;2022-09-09T16:31:46;5.03;;;0.90;;
72621;SDS011;60665;53.506;9.582;2022-09-09T16:34:12;3.63;;;0.90;;
72621;SDS011;60665;53.506;9.582;2022-09-09T16:36:39;3.70;;;1.10;;
72621;SDS011;60665;53.506;9.582;2022-09-09T16:39:06;4.18;;;0.90;;
72621;SDS011;60665;53.506;9.582;2022-09-09T16:41:34;3.72;;;0.80;;
72621;SDS011;60665;53.506;9.582;2022-09-09T16:44:01;2.67;;;0.90;;
72621;SDS011;60665;53.506;9.582;2022-09-09T16:48:53;3.95;;;0.77;;
72621;SDS011;60665;53.506;9.582;2022-09-09T16:51:22;3.60;;;0.90;;
72621;SDS011;60665;53.506;9.582;2022-09-09T16:53:49;4.38;;;1.00;;
72621;SDS011;60665;53.506;9.582;2022-09-09T16:56:16;3.90;;;1.05;;
72621;SDS011;60665;53.506;9.582;2022-09-09T16:58:50;5.60;;;1.27;;
72621;SDS011;60665;53.506;9.582;2022-09-09T17:01:16;5.32;;;1.23;;
72621;SDS011;60665;53.506;9.582;2022-09-09T17:03:42;3.35;;;1.10;;
72621;SDS011;60665;53.506;9.582;2022-09-09T17:06:14;3.60;;;1.13;;
72621;SDS011;60665;53.506;9.582;2022-09-09T17:08:40;3.72;;;1.00;;